Time;durP1;ratioP1;P1;durP2;ratioP2;P2;SDS_P1;SDS_P2;PMS_P1;PMS_P2;Temp;Humidity;BMP_temperature;BMP_pressure;BME280_temperature;BME280_humidity;BME280_pressure;Samples;Min_cycle;Max_cycle;Signal;HPM_P1;HPM_P2
2023/10/05 00:04:30;;;;;;;1.10;0.50;;;14.60;1.00;;;;;;5102993;28;20047;-77
2023/10/05 00:06:57;;;;;;;1.15;0.55;;;14.60;1.00;;;;;;5072056;28;20489;-77
2023/10/05 00:09:24;;;;;;;1.00;0.57;;;14.60;1.00;;;;;;5071984;28;20047;-77
2023/10/05 00:11:55;;;;;;;0.80;0.55;;;14.60;1.00;;;;;;5089674;28;20464;-77
2023/10/05 00:14:24;;;;;;;0.93;0.50;;;14.60;1.00;;;;;;5089491;28;20142;-78
2023/10/05 00:16:53;;;;;;;1.02;0.60;;;14.60;1.00;;;;;;5105773;28;20477;-77
2023/10/05 00:19:22;;;;;;;1.08;0.50;;;14.60;1.00;;;;;;5089482;28;20075;-78
2023/10/05 00:21:56;;;;;;;1.38;0.60;;;14.60;1.00;;;;;;5090238;28;20043;-77
2023/10/05 00:24:37;;;;;;;1.00;0.55;;;14.60;1.00;;;;;;5073195;28;20672;-77
2023/10/05 00:27:10;;;;;;;0.73;0.45;;;14.60;1.00;;;;;;5091213;28;20153;-77
2023/10/05 00:29:46;;;;;;;0.65;0.50;;;14.60;1.00;;;;;;5073476;28;20040;-77
2023/10/05 00:32:19;;;;;;;1.85;0.70;;;14.60;1.00;;;;;;5075197;28;20062;-77
2023/10/05 00:35:08;;;;;;;1.00;0.50;;;14.60;1.00;;;;;;5089385;28;20040;-77
2023/10/05 00:37:35;;;;;;;1.13;0.52;;;14.60;1.00;;;;;;5091342;28;20058;-77
2023/10/05 00:40:05;;;;;;;0.98;0.52;;;14.70;1.00;;;;;;5084669;28;20047;-77
2023/10/05 00:42:32;;;;;;;1.88;1.05;;;14.70;1.00;;;;;;5105376;28;20150;-77
2023/10/05 00:45:01;;;;;;;0.80;0.43;;;14.70;1.00;;;;;;5105370;28;20059;-77
2023/10/05 00:47:28;;;;;;;2.10;0.90;;;14.60;1.00;;;;;;5073169;28;20035;-77
2023/10/05 00:49:58;;;;;;;1.10;0.45;;;14.70;1.00;;;;;;5071952;28;20063;-77
2023/10/05 00:52:25;;;;;;;1.50;0.57;;;14.70;1.00;;;;;;5106987;28;20039;-77
2023/10/05 00:54:54;;;;;;;1.17;0.60;;;14.70;1.00;;;;;;5086212;28;20051;-77
2023/10/05 00:57:24;;;;;;;1.13;0.50;;;14.70;1.00;;;;;;5088876;28;20036;-77
2023/10/05 01:02:38;;;;;;;0.90;0.60;;;14.70;1.00;;;;;;5088719;28;20920;-77
2023/10/05 01:05:16;;;;;;;0.35;0.30;;;14.70;1.00;;;;;;5069641;28;20113;-77
2023/10/05 01:07:49;;;;;;;1.40;0.50;;;14.70;1.00;;;;;;5103739;28;20059;-77
2023/10/05 01:10:22;;;;;;;1.23;0.57;;;14.60;1.00;;;;;;5089376;28;20071;-77
2023/10/05 01:12:50;;;;;;;0.43;0.30;;;14.60;1.00;;;;;;5088966;28;20275;-77
2023/10/05 01:15:19;;;;;;;0.93;0.57;;;14.60;1.00;;;;;;5104765;28;20036;-76
2023/10/05 01:17:47;;;;;;;1.10;0.50;;;14.60;1.00;;;;;;5088333;28;20158;-77
2023/10/05 01:22:44;;;;;;;0.93;0.50;;;14.60;1.00;;;;;;5104952;28;20048;-77
2023/10/05 01:25:14;;;;;;;1.80;0.50;;;14.60;1.00;;;;;;5103411;28;20126;-77
2023/10/05 01:27:46;;;;;;;1.33;0.60;;;14.60;1.00;;;;;;5088446;28;20150;-77
2023/10/05 01:30:16;;;;;;;1.70;0.57;;;14.50;1.00;;;;;;5087890;28;20472;-77
2023/10/05 01:32:44;;;;;;;0.55;0.50;;;14.50;1.00;;;;;;5086071;28;20059;-77
2023/10/05 01:35:13;;;;;;;0.75;0.30;;;14.50;1.00;;;;;;5069779;28;20040;-77
2023/10/05 01:37:44;;;;;;;0.32;0.28;;;14.50;1.00;;;;;;5068303;28;20147;-77
2023/10/05 01:40:36;;;;;;;0.50;0.32;;;14.50;1.00;;;;;;5104651;28;20145;-77
2023/10/05 01:42:59;;;;;;;0.63;0.30;;;14.50;1.00;;;;;;5092573;28;20039;-77
2023/10/05 01:45:29;;;;;;;0.65;0.40;;;14.50;1.00;;;;;;5100190;28;20128;-77
2023/10/05 01:48:12;;;;;;;0.80;0.50;;;14.50;1.00;;;;;;5105306;28;20051;-77
2023/10/05 01:50:39;;;;;;;0.70;0.40;;;14.50;1.00;;;;;;5102887;28;20059;-77
2023/10/05 01:55:34;;;;;;;0.63;0.30;;;14.40;1.00;;;;;;5104028;28;20047;-78
2023/10/05 01:58:04;;;;;;;1.40;0.50;;;14.40;1.00;;;;;;5087314;28;20067;-77
2023/10/05 02:00:32;;;;;;;1.00;0.47;;;14.40;1.00;;;;;;5064340;28;20051;-77
2023/10/05 02:03:00;;;;;;;1.35;0.40;;;14.40;1.00;;;;;;5099024;28;20051;-77
2023/10/05 02:05:30;;;;;;;0.55;0.30;;;14.40;1.00;;;;;;5076847;28;20060;-77
2023/10/05 02:07:58;;;;;;;0.57;0.40;;;14.40;1.00;;;;;;5085136;28;20229;-77
2023/10/05 02:10:24;;;;;;;2.15;0.50;;;14.40;1.00;;;;;;5083922;28;20048;-77
2023/10/05 02:12:54;;;;;;;1.23;0.60;;;14.40;1.00;;;;;;5091302;28;20123;-77
2023/10/05 02:15:28;;;;;;;0.47;0.28;;;14.40;1.00;;;;;;5086912;28;20052;-77
2023/10/05 02:17:58;;;;;;;2.25;0.30;;;14.40;1.00;;;;;;5069200;28;20145;-77
2023/10/05 02:22:58;;;;;;;0.77;0.50;;;14.40;1.00;;;;;;5104509;28;20304;-77
2023/10/05 02:25:33;;;;;;;0.43;0.32;;;14.40;1.00;;;;;;5092920;28;20138;-77
2023/10/05 02:28:00;;;;;;;0.40;0.30;;;14.40;1.00;;;;;;5084900;28;20568;-77
2023/10/05 02:30:27;;;;;;;0.90;0.50;;;14.40;1.00;;;;;;5084643;28;20048;-77
2023/10/05 02:32:58;;;;;;;0.35;0.30;;;14.40;1.00;;;;;;5090806;28;20074;-77
2023/10/05 02:35:33;;;;;;;0.63;0.50;;;14.40;1.00;;;;;;5084873;28;20130;-77
2023/10/05 02:38:05;;;;;;;0.45;0.30;;;14.50;1.00;;;;;;5069266;28;20304;-77
2023/10/05 02:40:38;;;;;;;1.92;0.60;;;14.50;1.00;;;;;;5100720;28;20052;-77
2023/10/05 02:43:09;;;;;;;0.43;0.30;;;14.50;1.00;;;;;;5075634;28;20273;-77
2023/10/05 02:45:37;;;;;;;1.10;0.43;;;14.50;1.00;;;;;;5080170;28;20047;-77
2023/10/05 02:48:06;;;;;;;0.25;0.22;;;14.50;1.00;;;;;;5105491;28;20044;-77
2023/10/05 02:50:37;;;;;;;1.17;0.30;;;14.40;1.00;;;;;;5085321;28;20051;-77
2023/10/05 02:53:08;;;;;;;0.93;0.32;;;14.40;1.00;;;;;;5104303;28;20127;-77
2023/10/05 02:55:36;;;;;;;0.68;0.47;;;14.40;1.00;;;;;;5084865;28;20462;-78
2023/10/05 02:58:04;;;;;;;0.63;0.35;;;14.40;1.00;;;;;;5085044;28;20143;-77
2023/10/05 03:00:33;;;;;;;0.40;0.30;;;14.40;1.00;;;;;;5057016;28;20075;-77
2023/10/05 03:03:04;;;;;;;0.38;0.32;;;14.40;1.00;;;;;;5092365;28;20116;-77
2023/10/05 03:05:35;;;;;;;0.70;0.40;;;14.40;1.00;;;;;;5109510;28;20052;-77
2023/10/05 03:08:03;;;;;;;0.28;0.20;;;14.40;1.00;;;;;;5108716;28;20048;-77
2023/10/05 03:10:30;;;;;;;1.23;0.45;;;14.40;1.00;;;;;;5092121;28;20043;-77
2023/10/05 03:12:58;;;;;;;0.32;0.30;;;14.30;1.00;;;;;;5091094;28;20062;-78
2023/10/05 03:15:27;;;;;;;1.10;0.38;;;14.30;1.00;;;;;;5085607;28;20105;-77
2023/10/05 03:17:57;;;;;;;0.80;0.40;;;14.30;1.00;;;;;;5072295;28;20059;-77
2023/10/05 03:20:28;;;;;;;0.60;0.22;;;14.30;1.00;;;;;;5102273;28;20116;-77
2023/10/05 03:22:55;;;;;;;0.88;0.30;;;14.30;1.00;;;;;;5092636;28;20438;-78
2023/10/05 03:25:23;;;;;;;0.65;0.40;;;14.30;1.00;;;;;;5090759;28;20047;-78
2023/10/05 03:27:50;;;;;;;0.30;0.30;;;14.30;1.00;;;;;;5091822;28;20564;-78
2023/10/05 03:30:17;;;;;;;0.82;0.43;;;14.30;1.00;;;;;;5108777;28;20598;-77
2023/10/05 03:32:48;;;;;;;1.10;0.47;;;14.30;1.00;;;;;;5091858;28;20105;-77
2023/10/05 03:35:22;;;;;;;0.77;0.32;;;14.40;1.00;;;;;;5092416;28;20078;-78
2023/10/05 03:37:49;;;;;;;0.30;0.30;;;14.40;1.00;;;;;;5092578;28;20338;-78
2023/10/05 03:40:22;;;;;;;1.45;0.75;;;14.40;1.00;;;;;;5107402;28;20044;-77
2023/10/05 03:42:57;;;;;;;;;;;14.40;1.00;;;;;;5092512;28;20039;-77
2023/10/05 03:45:26;;;;;;;1.45;1.05;;;14.40;1.00;;;;;;5108408;28;19927;-77
2023/10/05 03:47:53;;;;;;;0.50;0.40;;;14.30;1.00;;;;;;5108566;28;20051;-78
2023/10/05 03:50:20;;;;;;;0.70;0.40;;;14.30;1.00;;;;;;5073799;28;20055;-78
2023/10/05 03:52:47;;;;;;;0.50;0.35;;;14.30;1.00;;;;;;5092471;28;20070;-78
2023/10/05 03:55:19;;;;;;;1.33;0.60;;;14.40;1.00;;;;;;5099739;28;20138;-78
2023/10/05 03:57:46;;;;;;;2.22;0.63;;;14.40;1.00;;;;;;5071327;28;20040;-77
2023/10/05 04:02:53;;;;;;;0.85;0.47;;;14.40;1.00;;;;;;5091124;28;20051;-77
2023/10/05 04:05:21;;;;;;;0.75;0.40;;;14.40;1.00;;;;;;5091170;28;20083;-77
2023/10/05 04:07:49;;;;;;;0.45;0.40;;;14.40;1.00;;;;;;5086495;28;20040;-78
2023/10/05 04:10:20;;;;;;;0.43;0.30;;;14.40;1.00;;;;;;5086685;28;20048;-77
2023/10/05 04:12:49;;;;;;;0.98;0.50;;;14.40;1.00;;;;;;5076035;28;20432;-77
2023/10/05 04:15:19;;;;;;;1.15;0.50;;;14.40;1.00;;;;;;5107746;28;20540;-78
2023/10/05 04:17:49;;;;;;;1.13;0.50;;;14.40;1.00;;;;;;5107796;28;20090;-78
2023/10/05 04:20:27;;;;;;;0.70;0.40;;;14.40;1.00;;;;;;5101161;28;20525;-77
2023/10/05 04:22:55;;;;;;;1.20;0.60;;;14.40;1.00;;;;;;5091871;28;20413;-77
2023/10/05 04:25:21;;;;;;;0.85;0.30;;;14.40;1.00;;;;;;5089952;28;20191;-77
2023/10/05 04:27:48;;;;;;;0.45;0.35;;;14.40;1.00;;;;;;5091371;28;20047;-77
2023/10/05 04:30:21;;;;;;;0.98;0.40;;;14.40;1.00;;;;;;5074274;28;20056;-77
2023/10/05 04:32:48;;;;;;;1.17;0.40;;;14.40;1.00;;;;;;5075958;28;20463;-77
2023/10/05 04:35:28;;;;;;;0.47;0.40;;;14.40;1.00;;;;;;5090696;28;20071;-77
2023/10/05 04:37:57;;;;;;;1.10;0.50;;;14.40;1.00;;;;;;5087298;28;20051;-77
2023/10/05 04:40:24;;;;;;;0.30;0.30;;;14.40;1.00;;;;;;5069777;28;20131;-77
2023/10/05 04:42:52;;;;;;;1.00;0.50;;;14.40;1.00;;;;;;5089632;28;20112;-77
2023/10/05 04:45:23;;;;;;;0.50;0.40;;;14.40;1.00;;;;;;5104959;28;20055;-78
2023/10/05 04:47:58;;;;;;;0.30;0.30;;;14.40;1.00;;;;;;5106389;28;20139;-78
2023/10/05 04:50:26;;;;;;;1.95;0.60;;;14.40;1.00;;;;;;5101042;28;20048;-77
2023/10/05 04:52:54;;;;;;;0.63;0.30;;;14.40;1.00;;;;;;5087538;28;20052;-78
2023/10/05 04:55:31;;;;;;;1.63;0.47;;;14.40;1.00;;;;;;5066910;28;20040;-78
2023/10/05 05:06:14;;;;;;;0.80;0.20;;;14.40;1.00;;;;;;5102626;28;20059;-78
2023/10/05 05:08:40;;;;;;;0.43;0.30;;;14.40;1.00;;;;;;5099701;28;20043;-77
2023/10/05 05:11:19;;;;;;;0.40;0.40;;;14.40;1.00;;;;;;5101952;28;20133;-77
2023/10/05 05:13:47;;;;;;;0.93;0.30;;;14.40;1.00;;;;;;5069612;28;20138;-77
2023/10/05 05:16:16;;;;;;;0.47;0.40;;;14.30;1.00;;;;;;5101934;28;20089;-77
2023/10/05 05:18:43;;;;;;;0.35;0.17;;;14.30;1.00;;;;;;5084777;28;20419;-77
2023/10/05 05:21:11;;;;;;;0.73;0.40;;;14.30;1.00;;;;;;5070284;28;20044;-78
2023/10/05 05:23:39;;;;;;;0.80;0.40;;;14.30;1.00;;;;;;5062801;28;20423;-77
2023/10/05 05:26:10;;;;;;;0.65;0.40;;;14.30;1.00;;;;;;5102274;28;20054;-77
2023/10/05 05:28:37;;;;;;;1.50;0.50;;;14.30;1.00;;;;;;5084566;28;20132;-77
2023/10/05 05:31:14;;;;;;;1.35;0.60;;;14.30;1.00;;;;;;5084724;28;20213;-77
2023/10/05 05:33:41;;;;;;;1.13;0.40;;;14.30;1.00;;;;;;5101520;28;20071;-77
2023/10/05 05:36:11;;;;;;;1.50;0.40;;;14.30;1.00;;;;;;5084390;28;20051;-78
2023/10/05 05:38:41;;;;;;;0.82;0.50;;;14.30;1.00;;;;;;5079232;28;20039;-78
2023/10/05 05:41:20;;;;;;;1.25;0.40;;;14.30;1.00;;;;;;5085409;28;20513;-78
2023/10/05 05:43:47;;;;;;;0.75;0.50;;;14.40;1.00;;;;;;5072917;28;20481;-78
2023/10/05 05:46:14;;;;;;;0.68;0.40;;;14.40;1.00;;;;;;5104480;28;20075;-78
2023/10/05 05:48:48;;;;;;;1.10;0.63;;;14.40;1.00;;;;;;5104311;28;20047;-77
2023/10/05 05:51:15;;;;;;;0.95;0.50;;;14.40;1.00;;;;;;5088312;28;20561;-77
2023/10/05 05:53:43;;;;;;;0.70;0.50;;;14.40;1.00;;;;;;5100477;28;20677;-77
2023/10/05 05:56:19;;;;;;;1.17;0.60;;;14.40;1.00;;;;;;5062988;28;20404;-78
2023/10/05 05:58:46;;;;;;;0.63;0.25;;;14.40;1.00;;;;;;5081213;28;20481;-77
2023/10/05 06:01:20;;;;;;;0.55;0.47;;;14.40;1.00;;;;;;5083159;28;20267;-77
2023/10/05 06:03:48;;;;;;;0.60;0.40;;;14.40;1.00;;;;;;5104185;28;20047;-77
2023/10/05 06:06:16;;;;;;;1.02;0.45;;;14.50;1.00;;;;;;5087796;28;20043;-77
2023/10/05 06:08:43;;;;;;;0.73;0.40;;;14.50;1.00;;;;;;5085451;28;20241;-77
2023/10/05 06:11:12;;;;;;;0.52;0.40;;;14.50;1.00;;;;;;5082990;28;20054;-77
2023/10/05 06:13:40;;;;;;;0.30;0.30;;;14.40;1.00;;;;;;5103333;28;20054;-78
2023/10/05 06:16:10;;;;;;;0.30;0.20;;;14.50;1.00;;;;;;5085176;28;20048;-77
2023/10/05 06:18:37;;;;;;;0.50;0.30;;;14.40;1.00;;;;;;5083759;28;20057;-77
2023/10/05 06:21:08;;;;;;;0.60;0.30;;;14.40;1.00;;;;;;5067448;28;20486;-77
2023/10/05 06:23:35;;;;;;;0.35;0.30;;;14.40;1.00;;;;;;5095477;28;20040;-78
2023/10/05 06:26:02;;;;;;;0.75;0.30;;;14.40;1.00;;;;;;5100673;28;20055;-77
2023/10/05 06:28:32;;;;;;;1.35;0.38;;;14.40;1.00;;;;;;5102512;28;20047;-77
2023/10/05 06:31:01;;;;;;;0.75;0.40;;;14.40;1.00;;;;;;5085594;28;20045;-78
2023/10/05 06:33:28;;;;;;;0.32;0.30;;;14.40;1.00;;;;;;5103030;28;20541;-77
2023/10/05 06:35:55;;;;;;;0.28;0.28;;;14.40;1.00;;;;;;5086678;28;20120;-78
2023/10/05 06:38:22;;;;;;;0.38;0.20;;;14.40;1.00;;;;;;5101125;28;20612;-78
2023/10/05 06:40:49;;;;;;;0.20;0.20;;;14.40;1.00;;;;;;5083822;28;20055;-78
2023/10/05 06:43:16;;;;;;;0.43;0.22;;;14.50;1.00;;;;;;5100074;28;20096;-78
2023/10/05 06:45:44;;;;;;;0.68;0.30;;;14.40;1.00;;;;;;5086638;28;20055;-78
2023/10/05 06:48:11;;;;;;;0.30;0.30;;;14.40;1.00;;;;;;5086947;28;20039;-78
2023/10/05 06:50:38;;;;;;;0.32;0.20;;;14.40;1.00;;;;;;5087243;28;20070;-77
2023/10/05 06:53:07;;;;;;;0.20;0.20;;;14.50;1.00;;;;;;5080796;28;20054;-77
2023/10/05 06:55:34;;;;;;;0.70;0.20;;;14.50;1.00;;;;;;5084797;28;20044;-77
2023/10/05 06:58:03;;;;;;;0.73;0.35;;;14.40;1.00;;;;;;5069130;28;20404;-77
2023/10/05 07:00:31;;;;;;;0.68;0.63;;;14.40;1.00;;;;;;5086352;28;20125;-78
2023/10/05 07:02:58;;;;;;;0.35;0.30;;;14.50;1.00;;;;;;5065630;28;20489;-77
2023/10/05 07:05:28;;;;;;;0.55;0.40;;;14.50;1.00;;;;;;5100123;28;20039;-77
2023/10/05 07:07:55;;;;;;;0.93;0.43;;;14.50;1.00;;;;;;5085797;28;20063;-78
2023/10/05 07:10:22;;;;;;;0.50;0.30;;;14.50;1.00;;;;;;5100209;28;20036;-77
2023/10/05 07:12:49;;;;;;;0.20;0.20;;;14.50;1.00;;;;;;5081787;28;20044;-77
2023/10/05 07:15:19;;;;;;;0.38;0.30;;;14.50;1.00;;;;;;5074921;28;20089;-77
2023/10/05 07:17:48;;;;;;;1.38;0.40;;;14.50;1.00;;;;;;5097974;28;20055;-78
2023/10/05 07:20:16;;;;;;;1.05;0.32;;;14.50;1.00;;;;;;5077468;28;20058;-77
2023/10/05 07:22:44;;;;;;;0.10;0.10;;;14.60;1.00;;;;;;5098557;28;20078;-77
2023/10/05 07:25:12;;;;;;;0.47;0.30;;;14.60;1.00;;;;;;5080130;28;20621;-77
2023/10/05 07:27:39;;;;;;;0.68;0.32;;;14.60;1.00;;;;;;5098038;28;20043;-77
2023/10/05 07:30:08;;;;;;;1.17;0.50;;;14.60;1.00;;;;;;5093716;28;20489;-79
2023/10/05 07:32:35;;;;;;;0.30;0.25;;;14.70;1.00;;;;;;5065264;28;20051;-79
2023/10/05 07:35:05;;;;;;;1.23;0.47;;;14.70;1.00;;;;;;5097592;28;20054;-77
2023/10/05 07:37:33;;;;;;;0.57;0.50;;;14.80;1.00;;;;;;5077819;28;20677;-78
2023/10/05 07:40:00;;;;;;;0.90;0.40;;;14.90;1.00;;;;;;5063681;28;20052;-78
2023/10/05 07:42:28;;;;;;;0.57;0.20;;;15.00;1.00;;;;;;5098414;28;20043;-77
2023/10/05 07:44:57;;;;;;;0.45;0.25;;;15.10;1.00;;;;;;5098882;28;20060;-77
2023/10/05 07:47:26;;;;;;;0.73;0.40;;;15.20;1.00;;;;;;5100351;28;20345;-77
2023/10/05 07:49:55;;;;;;;0.47;0.30;;;15.30;1.00;;;;;;5101758;28;20047;-78
2023/10/05 07:52:22;;;;;;;1.13;0.40;;;15.40;1.00;;;;;;5085477;28;20050;-78
2023/10/05 07:54:49;;;;;;;0.20;0.20;;;15.50;1.00;;;;;;5100545;28;20565;-78
2023/10/05 07:57:17;;;;;;;0.77;0.47;;;15.60;1.00;;;;;;5081766;28;20422;-78
2023/10/05 07:59:44;;;;;;;0.68;0.40;;;15.60;1.00;;;;;;5101158;28;20067;-78
2023/10/05 08:02:10;;;;;;;0.40;0.20;;;15.70;1.00;;;;;;5101719;28;20097;-78
2023/10/05 08:04:38;;;;;;;0.25;0.20;;;15.70;1.00;;;;;;5084408;28;20048;-78
2023/10/05 08:07:05;;;;;;;0.75;0.30;;;15.70;1.00;;;;;;5085401;28;20627;-78
2023/10/05 08:09:32;;;;;;;0.20;0.20;;;15.80;1.00;;;;;;5096148;28;20054;-78
2023/10/05 08:11:59;;;;;;;0.65;0.40;;;15.90;1.00;;;;;;5084275;28;20514;-78
2023/10/05 08:14:26;;;;;;;0.65;0.40;;;15.90;1.00;;;;;;5080465;28;20146;-78
2023/10/05 08:16:57;;;;;;;0.85;0.65;;;15.90;1.00;;;;;;5101000;28;20054;-78
2023/10/05 08:19:28;;;;;;;0.60;0.25;;;15.90;1.00;;;;;;5102307;28;20055;-78
2023/10/05 08:21:54;;;;;;;0.38;0.30;;;16.00;1.00;;;;;;5102619;28;20066;-78
2023/10/05 08:24:23;;;;;;;0.28;0.28;;;16.00;1.00;;;;;;5099963;28;20101;-78
2023/10/05 08:26:56;;;;;;;1.20;0.40;;;16.10;1.00;;;;;;5098145;28;20169;-78
2023/10/05 08:29:23;;;;;;;0.40;0.30;;;16.10;1.00;;;;;;5101174;28;20104;-78
2023/10/05 08:31:50;;;;;;;0.63;0.30;;;16.20;1.00;;;;;;5101213;28;20420;-78
2023/10/05 08:34:20;;;;;;;0.40;0.30;;;16.20;1.00;;;;;;5067266;28;20195;-77
2023/10/05 08:36:53;;;;;;;0.20;0.20;;;16.20;1.00;;;;;;5068369;28;20678;-77
2023/10/05 08:39:26;;;;;;;0.50;0.30;;;16.20;1.00;;;;;;5099545;28;20146;-77
2023/10/05 08:42:06;;;;;;;0.40;0.30;;;16.40;1.00;;;;;;5085228;28;20264;-78
2023/10/05 08:44:38;;;;;;;0.52;0.30;;;16.50;1.00;;;;;;5101117;28;20092;-78
2023/10/05 08:47:09;;;;;;;1.03;0.63;;;16.50;1.00;;;;;;5098383;28;20054;-78
2023/10/05 08:49:36;;;;;;;0.98;0.40;;;16.50;1.00;;;;;;5096766;28;20040;-78
2023/10/05 08:52:13;;;;;;;0.98;0.50;;;16.60;1.00;;;;;;5067105;28;20136;-77
2023/10/05 08:54:40;;;;;;;1.65;0.50;;;16.70;1.00;;;;;;5068545;28;20334;-78
2023/10/05 08:57:10;;;;;;;0.70;0.50;;;16.80;1.00;;;;;;5101421;28;20062;-78
2023/10/05 08:59:45;;;;;;;0.30;0.30;;;16.80;1.00;;;;;;5097986;28;20109;-78
2023/10/05 09:02:18;;;;;;;0.40;0.28;;;16.90;1.00;;;;;;5083931;28;20492;-78
2023/10/05 09:04:58;;;;;;;0.50;0.30;;;17.00;1.00;;;;;;5074987;28;20054;-78
2023/10/05 09:07:29;;;;;;;0.40;0.40;;;17.00;1.00;;;;;;5083321;28;20063;-78
2023/10/05 09:09:57;;;;;;;0.60;0.40;;;17.00;1.00;;;;;;5068686;28;20044;-78
2023/10/05 09:12:35;;;;;;;0.57;0.30;;;17.00;1.00;;;;;;5084280;28;20075;-78
2023/10/05 09:15:14;;;;;;;1.33;0.60;;;17.00;1.00;;;;;;5100105;28;20068;-78
2023/10/05 09:18:06;;;;;;;0.73;0.57;;;17.00;1.00;;;;;;5101221;28;20455;-75
2023/10/05 09:20:38;;;;;;;1.20;0.60;;;17.00;1.00;;;;;;5094804;28;20135;-82
2023/10/05 09:23:07;;;;;;;0.98;0.40;;;17.10;1.00;;;;;;5067063;28;20047;-82
2023/10/05 09:25:38;;;;;;;0.93;0.40;;;17.20;1.00;;;;;;5094037;28;20047;-81
2023/10/05 09:28:14;;;;;;;0.95;0.60;;;17.20;1.00;;;;;;5079680;28;20086;-81
2023/10/05 09:30:59;;;;;;;0.82;0.55;;;17.30;1.00;;;;;;5095676;28;20105;-81
2023/10/05 09:33:33;;;;;;;1.50;0.80;;;17.40;1.00;;;;;;5089958;28;20127;-82
2023/10/05 09:36:16;;;;;;;1.02;0.60;;;17.50;1.00;;;;;;5091687;28;20058;-82
2023/10/05 09:38:45;;;;;;;0.80;0.40;;;17.50;1.00;;;;;;5099860;27;20056;-73
2023/10/05 09:41:17;;;;;;;0.63;0.43;;;17.50;1.00;;;;;;5092640;28;20052;-74
2023/10/05 09:43:44;;;;;;;1.35;0.47;;;17.60;1.00;;;;;;5095138;28;20055;-73
2023/10/05 09:46:11;;;;;;;1.33;0.57;;;17.60;1.00;;;;;;5101427;28;20092;-73
2023/10/05 09:48:39;;;;;;;0.77;0.47;;;17.70;1.00;;;;;;5097813;28;20090;-73
2023/10/05 09:51:10;;;;;;;0.80;0.50;;;17.70;1.00;;;;;;5099195;28;20047;-74
2023/10/05 09:53:43;;;;;;;1.50;0.55;;;17.70;1.00;;;;;;5097694;28;20081;-73
2023/10/05 09:56:12;;;;;;;0.82;0.50;;;17.70;1.00;;;;;;5083896;28;20051;-74
2023/10/05 09:58:42;;;;;;;2.45;0.80;;;17.70;1.00;;;;;;5100452;28;20413;-73
2023/10/05 10:01:20;;;;;;;1.25;0.52;;;17.70;1.00;;;;;;5082287;28;20047;-73
2023/10/05 10:03:48;;;;;;;1.27;0.50;;;17.80;1.00;;;;;;5100594;28;20108;-73
2023/10/05 10:06:18;;;;;;;1.77;0.73;;;17.90;1.00;;;;;;5099136;28;20063;-73
2023/10/05 10:08:57;;;;;;;0.85;0.60;;;17.80;1.00;;;;;;5065278;28;20123;-74
2023/10/05 10:11:27;;;;;;;2.28;1.13;;;17.80;1.00;;;;;;5084273;28;20543;-73
2023/10/05 10:14:06;;;;;;;1.98;0.90;;;17.80;1.00;;;;;;5082000;28;20485;-74
2023/10/05 10:16:41;;;;;;;1.30;0.60;;;17.90;1.00;;;;;;5099856;28;20074;-74
2023/10/05 10:19:23;;;;;;;1.25;0.70;;;18.10;1.00;;;;;;5067443;28;20429;-73
2023/10/05 10:21:57;;;;;;;1.23;0.70;;;18.30;1.00;;;;;;5070200;28;20051;-74
2023/10/05 10:24:28;;;;;;;0.82;0.65;;;18.40;1.00;;;;;;5099397;28;20372;-74
2023/10/05 10:27:07;;;;;;;0.52;0.45;;;18.50;1.00;;;;;;5082621;28;20063;-74
2023/10/05 10:29:54;;;;;;;1.20;0.50;;;18.50;1.00;;;;;;5068244;28;20051;-73
2023/10/05 10:32:24;;;;;;;0.50;0.38;;;18.70;1.00;;;;;;5099461;28;20052;-74
2023/10/05 10:34:55;;;;;;;0.70;0.30;;;18.80;1.00;;;;;;5082374;28;20484;-74
2023/10/05 10:37:42;;;;;;;1.10;0.50;;;18.90;1.00;;;;;;5100143;28;20066;-74
2023/10/05 10:40:25;;;;;;;0.63;0.40;;;19.00;1.00;;;;;;5098861;28;20138;-73
2023/10/05 10:45:33;;;;;;;0.90;0.52;;;19.00;1.00;;;;;;5100753;28;20455;-74
2023/10/05 10:48:04;;;;;;;0.63;0.40;;;18.90;1.00;;;;;;5097021;28;20074;-72
2023/10/05 10:50:37;;;;;;;1.33;0.60;;;18.90;1.00;;;;;;5099535;28;20048;-72
2023/10/05 10:53:16;;;;;;;0.98;0.60;;;18.90;1.00;;;;;;5098741;28;20124;-72
2023/10/05 10:55:53;;;;;;;0.77;0.40;;;18.90;1.00;;;;;;5082191;28;20225;-72
2023/10/05 10:58:24;;;;;;;0.40;0.35;;;19.00;1.00;;;;;;5098210;28;20052;-72
2023/10/05 11:01:04;;;;;;;0.63;0.38;;;19.00;1.00;;;;;;5066141;28;20051;-72
2023/10/05 11:03:32;;;;;;;0.82;0.40;;;19.10;1.00;;;;;;5066591;28;20056;-73
2023/10/05 11:06:00;;;;;;;0.57;0.40;;;19.10;1.00;;;;;;5098710;28;20048;-73
2023/10/05 11:08:31;;;;;;;0.75;0.50;;;19.10;1.00;;;;;;5080438;28;20052;-72
2023/10/05 11:11:24;;;;;;;0.77;0.50;;;19.10;1.00;;;;;;5082885;28;20093;-73
2023/10/05 11:13:55;;;;;;;1.70;0.77;;;19.10;1.00;;;;;;5085524;28;20447;-74
2023/10/05 11:16:38;;;;;;;0.90;0.50;;;19.20;1.00;;;;;;5100885;28;20052;-73
2023/10/05 11:19:12;;;;;;;1.42;0.70;;;19.30;1.00;;;;;;5100739;28;20048;-74
2023/10/05 11:21:47;;;;;;;2.25;0.60;;;19.30;1.00;;;;;;5084311;28;20055;-74
2023/10/05 11:24:18;;;;;;;2.00;0.68;;;19.20;1.00;;;;;;5101450;28;20123;-74
2023/10/05 11:27:05;;;;;;;0.70;0.47;;;19.10;1.00;;;;;;5104507;28;20416;-73
2023/10/05 11:29:42;;;;;;;1.00;0.40;;;19.10;1.00;;;;;;5092086;28;20579;-74
2023/10/05 11:32:13;;;;;;;1.10;0.80;;;19.10;1.00;;;;;;5107468;28;20223;-74
2023/10/05 11:35:13;;;;;;;1.50;0.63;;;19.20;1.00;;;;;;5105903;28;20485;-74
2023/10/05 11:37:49;;;;;;;0.80;0.50;;;19.30;1.00;;;;;;5104508;28;20054;-74
2023/10/05 11:40:19;;;;;;;1.08;0.63;;;19.50;1.00;;;;;;5105078;28;20051;-74
2023/10/05 11:42:48;;;;;;;1.92;0.70;;;19.40;1.00;;;;;;5108923;28;20074;-74
2023/10/05 11:45:18;;;;;;;1.25;0.70;;;19.30;1.00;;;;;;5107212;28;20087;-74
2023/10/05 11:47:52;;;;;;;0.77;0.57;;;19.20;1.00;;;;;;5109503;27;20124;-74
2023/10/05 11:50:34;;;;;;;0.98;0.60;;;19.20;1.00;;;;;;5107854;28;20048;-74
2023/10/05 11:53:11;;;;;;;1.83;0.85;;;19.30;1.00;;;;;;5109035;28;20157;-74
2023/10/05 11:55:39;;;;;;;0.82;0.43;;;19.30;1.00;;;;;;5108639;28;20459;-74
2023/10/05 11:58:08;;;;;;;1.10;0.60;;;19.30;1.00;;;;;;5090361;28;20508;-74
2023/10/05 12:00:35;;;;;;;0.82;0.70;;;19.40;1.00;;;;;;5108765;28;20043;-74
2023/10/05 12:03:02;;;;;;;1.85;0.77;;;19.30;1.00;;;;;;5108686;28;20099;-74
2023/10/05 12:05:30;;;;;;;0.93;0.70;;;19.30;1.00;;;;;;5108635;28;20054;-73
2023/10/05 12:07:59;;;;;;;0.60;0.40;;;19.50;1.00;;;;;;5107254;28;20089;-73
2023/10/05 12:10:26;;;;;;;1.02;0.60;;;19.70;1.00;;;;;;5106824;28;20048;-74
2023/10/05 12:12:53;;;;;;;1.70;0.80;;;19.90;1.00;;;;;;5108144;28;20138;-74
2023/10/05 12:15:22;;;;;;;1.13;0.60;;;20.00;1.00;;;;;;5108355;28;20101;-74
2023/10/05 12:17:50;;;;;;;0.90;0.70;;;20.10;1.00;;;;;;5108710;28;20071;-73
2023/10/05 12:20:18;;;;;;;0.75;0.50;;;20.10;1.00;;;;;;5107204;28;20509;-74
2023/10/05 12:22:45;;;;;;;1.08;0.50;;;20.10;1.00;;;;;;5104586;28;20054;-74
2023/10/05 12:25:16;;;;;;;1.10;0.70;;;20.50;1.00;;;;;;5103782;28;20365;-74
2023/10/05 12:27:43;;;;;;;0.60;0.50;;;20.50;1.00;;;;;;5103615;28;20132;-74
2023/10/05 12:30:15;;;;;;;0.70;0.40;;;20.50;1.00;;;;;;5106372;28;20409;-74
2023/10/05 12:32:41;;;;;;;0.75;0.40;;;21.10;1.00;;;;;;5107127;28;20512;-74
2023/10/05 12:35:13;;;;;;;0.93;0.50;;;21.70;1.00;;;;;;5108107;28;20057;-74
2023/10/05 12:37:44;;;;;;;0.60;0.60;;;22.20;1.00;;;;;;5107201;28;20434;-74
2023/10/05 12:40:26;;;;;;;0.65;0.50;;;22.40;1.00;;;;;;5105328;28;20290;-74
2023/10/05 12:42:53;;;;;;;1.63;0.90;;;22.60;1.00;;;;;;5107684;28;20055;-74
2023/10/05 12:45:22;;;;;;;1.13;0.50;;;22.60;1.00;;;;;;5108009;28;20104;-73
2023/10/05 12:47:54;;;;;;;1.02;0.52;;;22.80;1.00;;;;;;5106813;28;20051;-72
2023/10/05 12:50:22;;;;;;;1.25;0.88;;;23.10;1.00;;;;;;5106282;28;20047;-72
2023/10/05 12:52:51;;;;;;;0.88;0.57;;;23.50;1.00;;;;;;5089544;28;20043;-73
2023/10/05 12:55:19;;;;;;;1.20;0.70;;;23.70;1.00;;;;;;5106210;28;20079;-73
2023/10/05 12:57:50;;;;;;;1.13;0.70;;;23.80;1.00;;;;;;5072922;28;20051;-72
2023/10/05 13:00:40;;;;;;;1.10;0.50;;;23.50;1.00;;;;;;5107734;28;20058;-73
2023/10/05 13:03:10;;;;;;;0.75;0.40;;;23.50;1.00;;;;;;5107350;28;20048;-73
2023/10/05 13:05:43;;;;;;;1.05;0.57;;;23.40;1.00;;;;;;5106404;28;20420;-72
2023/10/05 13:08:11;;;;;;;1.35;0.55;;;23.50;1.00;;;;;;5104725;28;20134;-72
2023/10/05 13:10:38;;;;;;;1.48;0.60;;;23.70;1.00;;;;;;5104812;28;20047;-72
2023/10/05 13:13:27;;;;;;;0.90;0.70;;;23.90;1.00;;;;;;5104002;28;20224;-73
2023/10/05 13:15:53;;;;;;;1.73;0.77;;;24.10;1.00;;;;;;5089166;28;20047;-72
2023/10/05 13:18:21;;;;;;;1.08;0.40;;;24.40;1.00;;;;;;5102348;28;20062;-72
2023/10/05 13:20:48;;;;;;;1.15;0.70;;;25.00;1.00;;;;;;5102309;28;20485;-73
2023/10/05 13:23:19;;;;;;;0.73;0.60;;;25.10;1.00;;;;;;5102294;28;20221;-73
2023/10/05 13:25:49;;;;;;;1.40;0.65;;;24.80;99.90;;;;;;5103130;28;20146;-72
2023/10/05 13:28:20;;;;;;;1.23;0.52;;;24.50;99.90;;;;;;5103564;28;20062;-72
2023/10/05 13:30:47;;;;;;;1.20;0.65;;;24.20;99.90;;;;;;5089245;28;20047;-74
2023/10/05 13:33:17;;;;;;;0.60;0.32;;;23.40;99.90;;;;;;5106506;28;20043;-73
2023/10/05 13:35:45;;;;;;;0.88;0.50;;;23.00;99.90;;;;;;5105647;28;20052;-73
2023/10/05 13:38:12;;;;;;;2.17;0.65;;;22.50;99.90;;;;;;5102102;28;20162;-74
2023/10/05 13:40:54;;;;;;;1.17;0.75;;;22.10;99.90;;;;;;5103293;28;20083;-73
2023/10/05 13:43:28;;;;;;;1.98;0.80;;;22.10;99.90;;;;;;5088174;28;20048;-73